createdAt,value
2023-09-13T00:01:32.010Z,10.88
2023-09-13T00:03:59.576Z,9.90
2023-09-13T00:06:26.379Z,9.65
2023-09-13T00:08:53.026Z,9.07
2023-09-13T00:11:19.655Z,9.60
2023-09-13T00:13:46.302Z,10.02
2023-09-13T00:16:13.228Z,9.40
2023-09-13T00:18:40.101Z,10.65
2023-09-13T00:21:10.119Z,8.90
2023-09-13T00:23:36.792Z,8.60
2023-09-13T00:26:06.234Z,10.50
2023-09-13T00:28:33.323Z,9.70
2023-09-13T00:31:00.200Z,9.32
2023-09-13T00:33:27.062Z,9.15
2023-09-13T00:35:57.664Z,9.80
2023-09-13T00:38:24.338Z,9.10
2023-09-13T00:40:51.237Z,10.02
2023-09-13T00:43:18.055Z,8.77
2023-09-13T00:45:45.396Z,9.18
2023-09-13T00:48:15.201Z,9.73
2023-09-13T00:53:19.165Z,9.57
2023-09-13T00:55:47.990Z,10.27
2023-09-13T00:58:14.823Z,10.23
2023-09-13T01:00:41.619Z,8.52
2023-09-13T01:03:08.505Z,10.15
2023-09-13T01:05:36.703Z,9.55
2023-09-13T01:08:04.431Z,9.40
2023-09-13T01:10:31.262Z,8.85
2023-09-13T01:12:58.102Z,9.88
2023-09-13T01:15:28.823Z,9.82
2023-09-13T01:18:04.588Z,9.18
2023-09-13T01:20:31.497Z,9.50
2023-09-13T01:23:23.756Z,9.85
2023-09-13T01:26:04.950Z,9.68
2023-09-13T01:28:35.626Z,10.70
2023-09-13T01:31:06.804Z,10.95
2023-09-13T01:33:33.713Z,10.77
2023-09-13T01:36:01.033Z,10.23
2023-09-13T01:38:28.604Z,10.32
2023-09-13T01:41:03.297Z,9.32
2023-09-13T01:43:31.083Z,9.70
2023-09-13T01:45:58.613Z,9.75
2023-09-13T01:48:25.818Z,11.48
2023-09-13T01:50:54.267Z,9.38
2023-09-13T01:53:21.150Z,9.88
2023-09-13T01:55:48.029Z,11.27
2023-09-13T01:58:14.908Z,10.07
2023-09-13T02:00:42.243Z,9.88
2023-09-13T02:03:09.016Z,11.45
2023-09-13T02:05:35.724Z,10.32
2023-09-13T02:08:02.541Z,10.38
2023-09-13T02:10:29.251Z,10.65
2023-09-13T02:12:55.960Z,10.13
2023-09-13T02:15:22.793Z,11.43
2023-09-13T02:17:49.476Z,10.02
2023-09-13T02:20:16.236Z,10.75
2023-09-13T02:22:43.130Z,10.30
2023-09-13T02:25:10.005Z,10.75
2023-09-13T02:27:36.752Z,10.30
2023-09-13T02:30:09.878Z,10.38
2023-09-13T02:32:36.669Z,10.85
2023-09-13T02:35:03.907Z,10.13
2023-09-13T02:37:30.623Z,12.13
2023-09-13T02:39:59.429Z,11.63
2023-09-13T02:42:26.299Z,12.35
2023-09-13T02:44:53.034Z,10.98
2023-09-13T02:47:19.795Z,10.82
2023-09-13T02:49:46.594Z,10.73
2023-09-13T02:52:13.347Z,11.63
2023-09-13T02:54:40.252Z,10.70
2023-09-13T02:57:08.314Z,11.52
2023-09-13T02:59:35.040Z,13.57
2023-09-13T03:02:01.938Z,13.30
2023-09-13T03:04:29.517Z,13.27
2023-09-13T03:06:56.375Z,11.90
2023-09-13T03:09:23.193Z,12.10
2023-09-13T03:11:49.975Z,13.85
2023-09-13T03:14:16.844Z,14.05
2023-09-13T03:16:43.669Z,18.08
2023-09-13T03:19:11.937Z,14.73
2023-09-13T03:21:38.799Z,15.23
2023-09-13T03:24:06.650Z,16.17
2023-09-13T03:26:34.830Z,17.15
2023-09-13T03:29:01.632Z,15.60
2023-09-13T03:31:29.280Z,14.05
2023-09-13T03:33:57.332Z,15.68
2023-09-13T03:36:26.415Z,15.68
2023-09-13T03:38:53.201Z,15.95
2023-09-13T03:41:21.255Z,18.30
2023-09-13T03:43:48.495Z,16.80
2023-09-13T03:46:15.432Z,15.60
2023-09-13T03:48:42.256Z,17.05
2023-09-13T03:51:09.482Z,15.93
2023-09-13T03:53:37.025Z,17.50
2023-09-13T03:56:04.774Z,16.77
2023-09-13T03:58:31.690Z,17.20
2023-09-13T04:00:58.839Z,16.60
2023-09-13T04:03:25.872Z,14.38
2023-09-13T04:05:53.033Z,13.60
2023-09-13T04:08:19.992Z,14.30
2023-09-13T04:10:46.803Z,14.57
2023-09-13T04:13:13.689Z,15.15
2023-09-13T04:15:43.405Z,15.02
2023-09-13T04:18:10.187Z,14.57
2023-09-13T04:20:36.952Z,13.63
2023-09-13T04:23:03.811Z,13.85
2023-09-13T04:25:30.657Z,14.20
2023-09-13T04:27:57.383Z,14.52
2023-09-13T04:30:24.232Z,14.18
2023-09-13T04:32:51.008Z,14.23
2023-09-13T04:35:18.578Z,15.10
2023-09-13T04:37:45.342Z,14.88
2023-09-13T04:40:14.676Z,14.98
2023-09-13T04:42:55.665Z,15.30
2023-09-13T04:45:23.308Z,13.77
2023-09-13T04:47:50.395Z,14.85
2023-09-13T04:50:17.270Z,13.88
2023-09-13T04:52:44.205Z,17.23
2023-09-13T04:55:11.078Z,13.88
2023-09-13T04:57:37.961Z,13.93
2023-09-13T05:00:12.606Z,13.35
2023-09-13T05:02:39.805Z,13.43
2023-09-13T05:05:07.468Z,13.73
2023-09-13T05:07:34.256Z,14.15
2023-09-13T05:10:01.158Z,14.50
2023-09-13T05:12:27.906Z,12.93
2023-09-13T05:14:54.609Z,14.00
2023-09-13T05:17:21.344Z,13.75
2023-09-13T05:19:48.136Z,12.98
2023-09-13T05:22:15.211Z,12.50
2023-09-13T05:24:42.034Z,12.65
2023-09-13T05:27:08.750Z,12.70
2023-09-13T05:29:35.439Z,12.90
2023-09-13T05:32:02.397Z,12.65
2023-09-13T05:34:29.437Z,12.85
2023-09-13T05:36:56.888Z,12.80
2023-09-13T05:39:23.748Z,12.75
2023-09-13T05:41:51.223Z,13.20
2023-09-13T05:44:26.337Z,12.25
2023-09-13T05:46:56.218Z,12.57
2023-09-13T05:49:23.058Z,11.55
2023-09-13T05:51:50.686Z,11.95
2023-09-13T05:54:17.660Z,10.70
2023-09-13T05:56:45.208Z,12.73
2023-09-13T05:59:11.949Z,10.82
2023-09-13T06:01:38.828Z,10.38
2023-09-13T06:04:07.463Z,11.77
2023-09-13T06:06:35.353Z,9.77
2023-09-13T06:09:05.072Z,9.95
2023-09-13T06:11:32.718Z,10.52
2023-09-13T06:13:59.580Z,11.23
2023-09-13T06:16:26.536Z,9.50
2023-09-13T06:18:53.991Z,10.15
2023-09-13T06:21:20.746Z,10.38
2023-09-13T06:23:48.848Z,9.45
2023-09-13T06:26:15.855Z,8.98
2023-09-13T06:28:42.953Z,9.77
2023-09-13T06:31:23.063Z,9.90
2023-09-13T06:33:56.812Z,10.15
2023-09-13T06:36:24.339Z,9.75
2023-09-13T06:38:52.256Z,9.50
2023-09-13T06:41:19.104Z,9.30
2023-09-13T06:44:05.580Z,11.95
2023-09-13T06:46:37.624Z,8.95
2023-09-13T06:49:05.377Z,10.00
2023-09-13T06:54:05.886Z,9.82
2023-09-13T06:56:34.087Z,12.07
2023-09-13T06:59:06.320Z,10.93
2023-09-13T07:04:08.587Z,10.82
2023-09-13T07:06:36.356Z,9.63
2023-09-13T07:09:04.774Z,10.82
2023-09-13T07:11:31.583Z,9.82
2023-09-13T07:13:59.673Z,10.70
2023-09-13T07:16:27.440Z,11.15
2023-09-13T07:18:56.163Z,11.25
2023-09-13T07:21:23.032Z,10.70
2023-09-13T07:23:49.812Z,10.90
2023-09-13T07:26:17.143Z,10.30
2023-09-13T07:28:46.610Z,10.05
2023-09-13T07:31:14.061Z,10.57
2023-09-13T07:33:40.872Z,10.27
2023-09-13T07:36:07.694Z,8.80
2023-09-13T07:38:36.195Z,8.98
2023-09-13T07:41:03.048Z,9.75
2023-09-13T07:43:29.789Z,9.18
2023-09-13T07:45:56.720Z,9.40
2023-09-13T07:48:24.494Z,9.77
2023-09-13T07:50:51.274Z,9.32
2023-09-13T07:53:18.128Z,9.60
2023-09-13T07:55:44.813Z,8.90
2023-09-13T07:58:11.473Z,7.90
2023-09-13T08:00:38.468Z,9.57
2023-09-13T08:03:05.932Z,10.20
2023-09-13T08:05:32.824Z,8.95
2023-09-13T08:08:00.336Z,7.20
2023-09-13T08:10:27.359Z,8.77
2023-09-13T08:12:56.158Z,8.93
2023-09-13T08:15:30.818Z,9.23
2023-09-13T08:18:05.623Z,8.57
2023-09-13T08:20:32.645Z,9.05
2023-09-13T08:22:59.482Z,8.90
2023-09-13T08:25:26.553Z,8.02
2023-09-13T08:27:53.428Z,7.82
2023-09-13T08:30:23.039Z,9.80
2023-09-13T08:32:49.789Z,7.85
2023-09-13T08:35:16.974Z,7.60
2023-09-13T08:37:43.930Z,8.85
2023-09-13T08:40:12.364Z,9.32
2023-09-13T08:42:41.542Z,8.15
2023-09-13T08:45:08.498Z,8.20
2023-09-13T08:47:55.122Z,7.90
2023-09-13T08:50:27.535Z,8.27
2023-09-13T08:52:54.862Z,8.57
2023-09-13T08:55:22.128Z,8.00
2023-09-13T08:57:49.147Z,7.72
2023-09-13T09:00:17.142Z,7.50
2023-09-13T09:02:44.527Z,6.65
2023-09-13T09:05:12.832Z,6.60
2023-09-13T09:07:41.535Z,7.43
2023-09-13T09:10:12.747Z,7.80
2023-09-13T09:12:44.958Z,6.72
2023-09-13T09:15:13.073Z,6.43
2023-09-13T09:17:41.087Z,6.63
2023-09-13T09:20:08.801Z,7.35
2023-09-13T09:22:35.859Z,5.75
2023-09-13T09:25:03.917Z,5.80
2023-09-13T09:27:30.667Z,6.18
2023-09-13T09:30:01.960Z,6.40
2023-09-13T09:32:31.922Z,5.78
2023-09-13T09:35:01.968Z,5.97
2023-09-13T09:37:34.650Z,5.68
2023-09-13T09:40:02.286Z,4.70
2023-09-13T09:42:30.590Z,5.57
2023-09-13T09:44:57.717Z,5.35
2023-09-13T09:47:25.004Z,6.22
2023-09-13T09:49:52.250Z,6.43
2023-09-13T09:52:20.608Z,5.47
2023-09-13T09:54:48.950Z,5.20
2023-09-13T09:57:27.649Z,6.05
2023-09-13T09:59:54.437Z,4.50
2023-09-13T10:02:30.368Z,6.95
2023-09-13T10:05:01.076Z,5.55
2023-09-13T10:07:27.803Z,6.18
2023-09-13T10:09:56.664Z,5.60
2023-09-13T10:12:23.304Z,4.97
2023-09-13T10:14:50.016Z,4.95
2023-09-13T10:17:18.406Z,4.68
2023-09-13T10:19:48.240Z,4.60
2023-09-13T10:22:15.962Z,4.25
2023-09-13T10:24:50.422Z,4.57
2023-09-13T10:27:19.208Z,4.15
2023-09-13T10:29:48.991Z,4.72
2023-09-13T10:32:16.840Z,4.95
2023-09-13T10:35:05.157Z,4.13
2023-09-13T10:37:57.709Z,4.70
2023-09-13T10:40:26.274Z,4.55
2023-09-13T10:42:54.094Z,4.47
2023-09-13T10:45:23.897Z,4.10
2023-09-13T10:47:51.962Z,4.25
2023-09-13T10:50:23.151Z,4.03
2023-09-13T10:52:50.982Z,3.63
2023-09-13T10:55:18.082Z,3.60
2023-09-13T10:57:45.018Z,3.00
2023-09-13T11:00:13.389Z,3.58
2023-09-13T11:02:45.215Z,3.22
2023-09-13T11:05:13.020Z,3.28
2023-09-13T11:07:48.280Z,3.90
2023-09-13T11:10:19.546Z,3.55
2023-09-13T11:12:52.764Z,3.40
2023-09-13T11:15:27.080Z,3.25
2023-09-13T11:17:55.370Z,7.10
2023-09-13T11:20:26.136Z,3.97
2023-09-13T11:23:07.238Z,5.05
2023-09-13T11:25:58.418Z,4.63
2023-09-13T11:28:40.114Z,3.70
2023-09-13T11:31:11.144Z,3.35
2023-09-13T11:33:45.964Z,4.43
2023-09-13T11:38:39.849Z,4.25
2023-09-13T11:41:06.832Z,3.83
2023-09-13T11:43:37.835Z,3.53
2023-09-13T11:46:05.778Z,4.38
2023-09-13T11:48:54.818Z,4.40
2023-09-13T11:51:25.684Z,4.60
2023-09-13T11:53:53.147Z,4.20
2023-09-13T11:56:51.256Z,4.50
2023-09-13T12:01:56.644Z,4.97
2023-09-13T12:06:59.806Z,4.45
2023-09-13T12:09:30.747Z,4.35
2023-09-13T12:12:02.009Z,4.45
2023-09-13T12:14:57.096Z,4.85
2023-09-13T12:17:20.606Z,4.60
2023-09-13T12:19:48.715Z,5.28
2023-09-13T12:22:17.493Z,4.60
2023-09-13T12:24:53.748Z,5.07
2023-09-13T12:27:20.894Z,4.80
2023-09-13T12:29:52.779Z,5.53
2023-09-13T12:32:19.495Z,4.63
2023-09-13T12:34:48.970Z,5.78
2023-09-13T12:37:16.288Z,5.00
2023-09-13T12:39:43.643Z,4.90
2023-09-13T12:42:10.624Z,4.80
2023-09-13T12:44:38.704Z,3.97
2023-09-13T12:47:06.570Z,4.05
2023-09-13T12:49:39.378Z,4.68
2023-09-13T12:52:06.507Z,4.65
2023-09-13T12:54:37.197Z,4.70
2023-09-13T12:57:04.414Z,4.38
2023-09-13T12:59:48.155Z,5.22
2023-09-13T13:02:21.156Z,4.43
2023-09-13T13:04:48.648Z,5.25
2023-09-13T13:07:24.529Z,5.45
2023-09-13T13:09:53.046Z,5.10
2023-09-13T13:12:19.863Z,4.90
2023-09-13T13:14:52.877Z,5.15
2023-09-13T13:17:26.001Z,4.55
2023-09-13T13:19:57.489Z,4.35
2023-09-13T13:22:25.905Z,5.60
2023-09-13T13:24:53.922Z,4.72
2023-09-13T13:27:21.273Z,4.60
2023-09-13T13:29:49.353Z,4.53
2023-09-13T13:32:16.648Z,4.57
2023-09-13T13:34:43.795Z,4.00
2023-09-13T13:37:14.341Z,4.85
2023-09-13T13:39:41.282Z,4.30
2023-09-13T13:42:08.057Z,4.88
2023-09-13T13:44:35.985Z,4.43
2023-09-13T13:47:09.063Z,3.90
2023-09-13T13:49:36.481Z,4.68
2023-09-13T13:52:03.476Z,5.05
2023-09-13T13:54:30.374Z,3.90
2023-09-13T13:56:57.080Z,5.28
2023-09-13T13:59:23.845Z,4.25
2023-09-13T14:01:50.654Z,4.43
2023-09-13T14:04:17.607Z,4.65
2023-09-13T14:06:47.585Z,4.93
2023-09-13T14:09:17.638Z,4.38
2023-09-13T14:11:44.394Z,4.38
2023-09-13T14:14:15.121Z,4.07
2023-09-13T14:16:45.105Z,4.93
2023-09-13T14:19:12.868Z,4.20
2023-09-13T14:21:46.396Z,4.65
2023-09-13T14:24:13.406Z,4.43
2023-09-13T14:26:40.269Z,3.85
2023-09-13T14:29:08.937Z,4.82
2023-09-13T14:31:38.388Z,5.10
2023-09-13T14:34:07.738Z,6.22
2023-09-13T14:36:34.892Z,4.07
2023-09-13T14:39:01.800Z,4.28
2023-09-13T14:41:30.188Z,4.63
2023-09-13T14:43:56.861Z,4.82
2023-09-13T14:46:23.872Z,4.68
2023-09-13T14:48:54.395Z,6.20
2023-09-13T14:51:21.862Z,5.88
2023-09-13T14:53:48.695Z,4.28
2023-09-13T14:56:15.410Z,4.45
2023-09-13T14:58:42.758Z,4.57
2023-09-13T15:01:09.801Z,4.68
2023-09-13T15:03:38.084Z,4.95
2023-09-13T15:06:05.157Z,4.32
2023-09-13T15:08:31.886Z,4.75
2023-09-13T15:10:58.732Z,4.93
2023-09-13T15:13:25.426Z,4.90
2023-09-13T15:15:52.749Z,4.57
2023-09-13T15:18:19.935Z,4.80
2023-09-13T15:20:47.634Z,6.05
2023-09-13T15:23:14.433Z,6.00
2023-09-13T15:25:41.187Z,5.78
2023-09-13T15:28:08.025Z,6.38
2023-09-13T15:30:34.796Z,6.57
2023-09-13T15:33:01.620Z,5.50
2023-09-13T15:35:28.847Z,5.32
2023-09-13T15:37:55.695Z,7.32
2023-09-13T15:40:22.429Z,5.28
2023-09-13T15:42:49.372Z,6.10
2023-09-13T15:45:19.494Z,5.70
2023-09-13T15:47:48.973Z,5.88
2023-09-13T15:50:15.782Z,6.28
2023-09-13T15:52:42.781Z,5.65
2023-09-13T15:55:10.399Z,6.65
2023-09-13T15:57:37.112Z,7.13
2023-09-13T16:00:04.665Z,5.88
2023-09-13T16:02:33.792Z,5.75
2023-09-13T16:05:00.613Z,6.40
2023-09-13T16:07:31.645Z,5.90
2023-09-13T16:09:58.342Z,6.55
2023-09-13T16:12:25.088Z,6.22
2023-09-13T16:14:51.825Z,6.38
2023-09-13T16:17:18.656Z,6.38
2023-09-13T16:19:45.475Z,7.03
2023-09-13T16:22:12.138Z,7.57
2023-09-13T16:24:38.899Z,7.78
2023-09-13T16:27:05.702Z,8.77
2023-09-13T16:29:32.921Z,7.03
2023-09-13T16:32:00.444Z,7.65
2023-09-13T16:34:27.379Z,8.13
2023-09-13T16:36:54.588Z,7.38
2023-09-13T16:39:22.129Z,7.90
2023-09-13T16:41:49.346Z,7.38
2023-09-13T16:44:16.625Z,8.75
2023-09-13T16:46:46.882Z,7.53
2023-09-13T16:49:14.439Z,6.93
2023-09-13T16:51:42.125Z,8.38
2023-09-13T16:54:08.873Z,8.75
2023-09-13T16:56:35.546Z,7.78
2023-09-13T16:59:02.235Z,7.95
2023-09-13T17:01:29.040Z,7.60
2023-09-13T17:03:55.929Z,6.47
2023-09-13T17:06:24.899Z,7.53
2023-09-13T17:08:51.537Z,6.28
2023-09-13T17:11:19.796Z,6.05
2023-09-13T17:13:47.488Z,7.50
2023-09-13T17:16:14.614Z,6.13
2023-09-13T17:18:41.384Z,6.97
2023-09-13T17:21:08.185Z,7.38
2023-09-13T17:23:34.999Z,7.53
2023-09-13T17:26:01.995Z,6.22
2023-09-13T17:28:38.047Z,7.30
2023-09-13T17:31:04.986Z,7.13
2023-09-13T17:33:31.778Z,7.60
2023-09-13T17:35:59.010Z,6.88
2023-09-13T17:38:25.774Z,6.82
2023-09-13T17:40:52.579Z,8.00
2023-09-13T17:43:19.331Z,7.10
2023-09-13T17:45:46.251Z,6.45
2023-09-13T17:48:13.043Z,7.13
2023-09-13T17:50:40.266Z,7.38
2023-09-13T17:53:07.835Z,6.82
2023-09-13T17:55:34.995Z,7.30
2023-09-13T17:58:02.085Z,7.30
2023-09-13T18:00:29.229Z,7.15
2023-09-13T18:02:56.523Z,6.47
2023-09-13T18:05:23.575Z,6.80
2023-09-13T18:07:56.122Z,7.50
2023-09-13T18:10:23.015Z,7.38
2023-09-13T18:12:49.836Z,6.43
2023-09-13T18:15:16.699Z,7.15
2023-09-13T18:17:52.649Z,9.07
2023-09-13T18:20:20.920Z,8.77
2023-09-13T18:22:47.720Z,9.60
2023-09-13T18:25:14.532Z,10.65
2023-09-13T18:27:43.898Z,9.20
2023-09-13T18:30:12.257Z,10.57
2023-09-13T18:32:39.182Z,10.88
2023-09-13T18:35:06.408Z,9.65
2023-09-13T18:37:34.853Z,10.80
2023-09-13T18:40:01.720Z,11.02
2023-09-13T18:42:28.579Z,11.63
2023-09-13T18:44:56.790Z,9.75
2023-09-13T18:47:23.793Z,11.05
2023-09-13T18:49:50.451Z,10.13
2023-09-13T18:52:17.163Z,9.20
2023-09-13T18:54:43.948Z,10.27
2023-09-13T18:57:11.274Z,10.77
2023-09-13T18:59:40.939Z,12.02
2023-09-13T19:02:12.244Z,11.77
2023-09-13T19:04:39.150Z,11.73
2023-09-13T19:07:10.264Z,12.13
2023-09-13T19:09:39.856Z,12.00
2023-09-13T19:12:07.448Z,10.98
2023-09-13T19:14:34.218Z,12.35
2023-09-13T19:17:00.961Z,11.68
2023-09-13T19:19:27.690Z,11.38
2023-09-13T19:21:54.537Z,10.15
2023-09-13T19:24:21.371Z,13.68
2023-09-13T19:26:48.201Z,13.82
2023-09-13T19:29:14.980Z,13.73
2023-09-13T19:31:41.770Z,15.30
2023-09-13T19:34:08.550Z,13.82
2023-09-13T19:36:35.313Z,14.55
2023-09-13T19:39:03.613Z,15.57
2023-09-13T19:41:30.355Z,13.13
2023-09-13T19:43:57.555Z,13.85
2023-09-13T19:46:24.524Z,14.82
2023-09-13T19:48:51.266Z,15.18
2023-09-13T19:51:18.094Z,15.60
2023-09-13T19:53:45.005Z,14.10
2023-09-13T19:56:11.882Z,14.68
2023-09-13T19:58:40.614Z,12.82
2023-09-13T20:01:09.234Z,13.50
2023-09-13T20:03:36.641Z,15.38
2023-09-13T20:06:15.361Z,14.30
2023-09-13T20:08:42.132Z,14.48
2023-09-13T20:11:09.663Z,13.77
2023-09-13T20:13:40.816Z,14.10
2023-09-13T20:16:08.229Z,14.25
2023-09-13T20:18:34.982Z,14.40
2023-09-13T20:21:04.677Z,14.88
2023-09-13T20:23:31.602Z,13.27
2023-09-13T20:25:58.749Z,12.90
2023-09-13T20:28:27.260Z,13.18
2023-09-13T20:30:55.397Z,13.70
2023-09-13T20:33:22.457Z,13.45
2023-09-13T20:35:50.038Z,13.55
2023-09-13T20:38:17.824Z,14.15
2023-09-13T20:40:44.597Z,13.75
2023-09-13T20:43:11.752Z,12.18
2023-09-13T20:45:39.424Z,14.48
2023-09-13T20:48:06.782Z,14.15
2023-09-13T20:50:33.532Z,14.68
2023-09-13T20:53:00.318Z,13.50
2023-09-13T20:55:27.085Z,14.60
2023-09-13T20:57:53.839Z,13.27
2023-09-13T21:00:20.636Z,14.32
2023-09-13T21:02:47.383Z,13.45
2023-09-13T21:05:14.075Z,13.27
2023-09-13T21:07:40.872Z,13.63
2023-09-13T21:10:07.780Z,14.85
2023-09-13T21:12:34.577Z,13.40
2023-09-13T21:15:01.226Z,15.05
2023-09-13T21:17:27.989Z,13.55
2023-09-13T21:19:55.095Z,14.13
2023-09-13T21:22:21.992Z,14.50
2023-09-13T21:24:50.376Z,13.52
2023-09-13T21:27:17.210Z,12.73
2023-09-13T21:29:44.005Z,14.48
2023-09-13T21:32:10.827Z,13.48
2023-09-13T21:34:55.021Z,12.52
2023-09-13T21:37:26.352Z,12.27
2023-09-13T21:39:53.727Z,13.05
2023-09-13T21:42:22.362Z,14.07
2023-09-13T21:44:50.904Z,12.73
2023-09-13T21:47:17.660Z,12.32
2023-09-13T21:49:44.413Z,13.73
2023-09-13T21:52:11.116Z,12.18
2023-09-13T21:54:43.745Z,12.68
2023-09-13T21:57:10.717Z,12.85
2023-09-13T21:59:37.519Z,12.75
2023-09-13T22:02:04.798Z,12.55
2023-09-13T22:04:31.992Z,13.52
2023-09-13T22:06:58.926Z,12.00
2023-09-13T22:09:25.767Z,12.98
2023-09-13T22:11:52.756Z,12.77
2023-09-13T22:14:19.492Z,12.15
2023-09-13T22:16:46.271Z,12.10
2023-09-13T22:19:13.195Z,13.75
2023-09-13T22:21:40.079Z,12.90
2023-09-13T22:24:07.024Z,12.48
2023-09-13T22:26:33.731Z,12.80
2023-09-13T22:29:00.524Z,13.40
2023-09-13T22:31:27.331Z,12.80
2023-09-13T22:33:56.432Z,12.02
2023-09-13T22:36:23.340Z,12.45
2023-09-13T22:38:58.438Z,11.68
2023-09-13T22:41:34.874Z,12.35
2023-09-13T22:44:01.769Z,12.43
2023-09-13T22:46:28.649Z,13.00
2023-09-13T22:48:55.564Z,11.68
2023-09-13T22:51:22.377Z,11.48
2023-09-13T22:53:49.225Z,12.98
2023-09-13T22:56:15.999Z,13.77
2023-09-13T22:58:43.079Z,12.75
2023-09-13T23:01:11.257Z,12.27
2023-09-13T23:03:45.232Z,11.50
2023-09-13T23:06:13.167Z,13.35
2023-09-13T23:08:40.386Z,12.73
2023-09-13T23:11:07.550Z,11.98
2023-09-13T23:13:37.522Z,12.48
2023-09-13T23:16:06.475Z,13.63
2023-09-13T23:18:35.075Z,12.02
2023-09-13T23:21:02.600Z,12.13
2023-09-13T23:23:31.064Z,12.48
2023-09-13T23:26:02.469Z,14.30
2023-09-13T23:28:29.573Z,14.70
2023-09-13T23:31:07.957Z,12.43
2023-09-13T23:33:36.581Z,13.70
2023-09-13T23:36:04.580Z,13.63
2023-09-13T23:38:32.175Z,13.63
2023-09-13T23:41:06.516Z,13.35
2023-09-13T23:43:37.231Z,14.15
2023-09-13T23:46:05.139Z,13.52
2023-09-13T23:48:33.291Z,13.10
2023-09-13T23:51:00.162Z,13.68
2023-09-13T23:53:28.243Z,14.85
2023-09-13T23:55:55.050Z,13.52
2023-09-13T23:58:21.744Z,14.18
